createdAt,value
2019-04-22T00:01:16.150Z,13.73
2019-04-22T00:03:47.484Z,13.71
2019-04-22T00:06:34.141Z,13.68
2019-04-22T00:09:11.041Z,13.64
2019-04-22T00:11:58.883Z,13.70
2019-04-22T00:14:07.804Z,13.73
2019-04-22T00:16:46.914Z,13.75
2019-04-22T00:19:23.981Z,13.78
2019-04-22T00:21:47.652Z,13.84
2019-04-22T00:24:12.116Z,13.85
2019-04-22T00:26:49.968Z,13.88
2019-04-22T00:29:39.456Z,13.92
2019-04-22T00:32:05.511Z,13.94
2019-04-22T00:34:42.353Z,13.96
2019-04-22T00:37:17.201Z,14.02
2019-04-22T00:39:46.341Z,14.12
2019-04-22T00:42:21.395Z,14.21
2019-04-22T00:44:51.790Z,14.31
2019-04-22T00:47:27.997Z,14.39
2019-04-22T00:50:12.403Z,14.49
2019-04-22T00:52:26.481Z,14.63
2019-04-22T00:55:04.164Z,14.72
2019-04-22T00:57:30.821Z,14.76
2019-04-22T00:59:57.277Z,14.83
2019-04-22T01:02:34.623Z,14.89
2019-04-22T01:05:00.721Z,14.90
2019-04-22T01:07:31.665Z,14.93
2019-04-22T01:10:07.801Z,14.96
2019-04-22T01:12:34.620Z,14.98
2019-04-22T01:15:10.664Z,14.99
2019-04-22T01:17:43.516Z,15.01
2019-04-22T01:20:24.519Z,15.00
2019-04-22T01:22:34.207Z,15.02
2019-04-22T01:25:08.014Z,15.03
2019-04-22T01:27:34.555Z,15.02
2019-04-22T01:30:06.649Z,14.99
2019-04-22T01:32:27.315Z,14.97
2019-04-22T01:35:05.945Z,14.96
2019-04-22T01:37:40.665Z,14.95
2019-04-22T01:40:24.063Z,14.92
2019-04-22T01:42:55.797Z,14.93
2019-04-22T01:45:29.529Z,14.92
2019-04-22T01:50:27.765Z,14.93
2019-04-22T01:52:59.160Z,14.92
2019-04-22T01:57:54.819Z,14.91
2019-04-22T02:00:32.606Z,14.90
2019-04-22T02:03:07.133Z,14.92
2019-04-22T02:05:31.434Z,14.91
2019-04-22T02:08:08.332Z,14.90
2019-04-22T02:10:42.148Z,14.90
2019-04-22T02:13:10.774Z,14.90
2019-04-22T02:15:39.656Z,14.93
2019-04-22T02:18:18.112Z,14.94
2019-04-22T02:20:43.033Z,14.97
2019-04-22T02:28:40.085Z,14.97
2019-04-22T02:34:01.815Z,14.95
2019-04-22T02:38:57.446Z,14.93
2019-04-22T02:43:56.910Z,14.86
2019-04-22T02:54:17.295Z,14.68
2019-04-22T03:01:27.530Z,14.54
2019-04-22T03:04:01.664Z,14.48
2019-04-22T03:06:31.853Z,14.41
2019-04-22T03:11:25.359Z,14.33
2019-04-22T03:14:45.969Z,14.30
2019-04-22T03:21:23.861Z,14.19
2019-04-22T03:24:15.728Z,14.14
2019-04-22T03:28:57.025Z,14.01
2019-04-22T03:37:17.408Z,14.01
2019-04-22T03:39:45.681Z,14.00
2019-04-22T03:44:31.023Z,13.94
2019-04-22T03:47:01.848Z,13.90
2019-04-22T03:52:04.994Z,13.83
2019-04-22T03:54:39.150Z,13.85
2019-04-22T03:59:31.818Z,13.78
2019-04-22T04:02:01.891Z,13.74
2019-04-22T04:04:33.382Z,13.72
2019-04-22T04:17:11.479Z,13.56
2019-04-22T04:19:46.021Z,13.54
2019-04-22T04:22:21.349Z,13.54
2019-04-22T04:27:42.687Z,13.54
2019-04-22T04:35:05.352Z,13.59
2019-04-22T04:39:53.307Z,13.61
2019-04-22T04:47:35.363Z,13.66
2019-04-22T04:53:00.215Z,13.66
2019-04-22T04:54:59.413Z,13.71
2019-04-22T04:57:33.776Z,13.70
2019-04-22T05:02:40.966Z,13.75
2019-04-22T05:05:06.528Z,13.76
2019-04-22T05:07:38.385Z,13.78
2019-04-22T05:15:03.970Z,13.89
2019-04-22T05:17:35.200Z,13.94
2019-04-22T05:20:05.338Z,14.03
2019-04-22T05:22:34.055Z,14.12
2019-04-22T05:25:06.608Z,14.18
2019-04-22T05:27:39.766Z,14.35
2019-04-22T05:32:37.068Z,14.63
2019-04-22T05:35:10.248Z,14.80
2019-04-22T05:40:17.688Z,15.14
2019-04-22T05:42:39.555Z,15.29
2019-04-22T05:47:42.879Z,15.50
2019-04-22T05:50:13.046Z,15.64
2019-04-22T05:52:51.355Z,15.72
2019-04-22T05:55:26.819Z,15.82
2019-04-22T05:57:59.132Z,15.90
2019-04-22T06:00:36.910Z,15.95
2019-04-22T06:03:09.956Z,15.99
2019-04-22T06:05:31.910Z,16.05
2019-04-22T06:08:00.080Z,16.09
2019-04-22T06:10:39.920Z,16.09
2019-04-22T06:13:01.053Z,16.09
2019-04-22T06:15:54.329Z,16.06
2019-04-22T06:18:15.994Z,16.05
2019-04-22T06:20:57.502Z,16.10
2019-04-22T06:23:18.635Z,16.12
2019-04-22T06:26:10.114Z,16.22
2019-04-22T06:28:29.013Z,16.46
2019-04-22T06:30:57.101Z,16.82
2019-04-22T06:36:08.076Z,17.59
2019-04-22T06:41:07.201Z,17.99
2019-04-22T06:43:38.510Z,18.12
2019-04-22T06:46:02.157Z,18.33
2019-04-22T06:48:31.684Z,18.60
2019-04-22T06:51:05.157Z,18.89
2019-04-22T06:53:37.312Z,19.21
2019-04-22T06:55:59.677Z,19.44
2019-04-22T06:58:34.996Z,19.81
2019-04-22T07:01:09.878Z,20.19
2019-04-22T07:03:41.670Z,20.49
2019-04-22T07:06:09.508Z,20.87
2019-04-22T07:11:02.757Z,21.41
2019-04-22T07:13:43.473Z,21.67
2019-04-22T07:16:11.551Z,21.79
2019-04-22T07:18:42.991Z,21.86
2019-04-22T07:21:12.698Z,21.92
2019-04-22T07:23:51.245Z,22.07
2019-04-22T07:26:18.953Z,22.23
2019-04-22T07:28:43.817Z,22.26
2019-04-22T07:31:18.983Z,22.48
2019-04-22T07:34:08.067Z,22.68
2019-04-22T07:36:41.971Z,22.80
2019-04-22T07:38:48.650Z,22.99
2019-04-22T07:41:24.624Z,23.18
2019-04-22T07:46:28.693Z,23.61
2019-04-22T07:48:59.700Z,23.79
2019-04-22T07:51:28.229Z,23.78
2019-04-22T07:54:01.283Z,23.74
2019-04-22T07:56:29.269Z,23.73
2019-04-22T07:59:07.594Z,23.78
2019-04-22T08:01:30.540Z,23.87
2019-04-22T08:06:43.748Z,24.03
2019-04-22T08:09:07.609Z,24.17
2019-04-22T08:14:07.215Z,24.24
2019-04-22T08:16:43.945Z,24.37
2019-04-22T08:19:16.982Z,24.46
2019-04-22T08:21:49.417Z,24.70
2019-04-22T08:24:29.244Z,24.82
2019-04-22T08:26:51.960Z,24.93
2019-04-22T08:29:20.355Z,25.16
2019-04-22T08:31:48.589Z,25.41
2019-04-22T08:34:19.519Z,25.67
2019-04-22T08:37:14.615Z,25.82
2019-04-22T08:39:19.895Z,26.11
2019-04-22T08:41:46.090Z,26.33
2019-04-22T08:44:49.668Z,26.45
2019-04-22T08:46:57.731Z,26.40
2019-04-22T08:49:23.173Z,26.31
2019-04-22T08:51:58.498Z,26.30
2019-04-22T08:54:24.512Z,26.37
2019-04-22T08:56:58.252Z,26.35
2019-04-22T08:59:43.575Z,26.44
2019-04-22T09:01:59.688Z,26.67
2019-04-22T09:04:30.594Z,26.98
2019-04-22T09:09:31.454Z,27.46
2019-04-22T09:12:07.627Z,27.52
2019-04-22T09:14:39.235Z,27.61
2019-04-22T09:17:13.648Z,27.58
2019-04-22T09:19:39.019Z,27.66
2019-04-22T09:22:13.655Z,27.86
2019-04-22T09:24:40.827Z,27.78
2019-04-22T09:27:23.349Z,27.96
2019-04-22T09:29:42.859Z,28.12
2019-04-22T09:34:47.306Z,28.22
2019-04-22T09:37:23.675Z,28.28
2019-04-22T09:39:50.808Z,28.32
2019-04-22T09:42:18.238Z,28.64
2019-04-22T09:44:55.528Z,29.01
2019-04-22T09:47:19.199Z,29.36
2019-04-22T09:49:58.124Z,29.91
2019-04-22T09:52:26.254Z,30.56
2019-04-22T09:55:01.184Z,31.36
2019-04-22T09:57:24.902Z,32.21
2019-04-22T10:05:00.216Z,33.99
2019-04-22T10:12:36.532Z,35.00
2019-04-22T10:15:00.170Z,35.32
2019-04-22T10:17:32.206Z,35.18
2019-04-22T10:20:05.608Z,34.46
2019-04-22T10:22:43.670Z,32.85
2019-04-22T10:25:10.447Z,31.83
2019-04-22T10:27:39.798Z,30.98
2019-04-22T10:30:08.935Z,30.23
2019-04-22T10:32:44.605Z,29.78
2019-04-22T10:35:11.068Z,29.43
2019-04-22T10:37:38.635Z,28.97
2019-04-22T10:40:16.329Z,28.51
2019-04-22T10:42:47.382Z,28.27
2019-04-22T10:45:16.763Z,27.95
2019-04-22T10:47:46.133Z,27.79
2019-04-22T10:50:16.579Z,27.63
2019-04-22T10:52:46.015Z,27.40
2019-04-22T10:55:17.145Z,27.16
2019-04-22T10:57:46.668Z,26.94
2019-04-22T11:00:17.669Z,26.87
2019-04-22T11:02:47.820Z,26.71
2019-04-22T11:05:17.349Z,26.48
2019-04-22T11:07:53.781Z,26.25
2019-04-22T11:10:35.487Z,26.15
2019-04-22T11:12:49.406Z,26.11
2019-04-22T11:15:19.172Z,26.10
2019-04-22T11:17:49.529Z,25.97
2019-04-22T11:20:19.970Z,25.84
2019-04-22T11:22:50.944Z,25.81
2019-04-22T11:25:21.659Z,25.72
2019-04-22T11:27:51.458Z,25.68
2019-04-22T11:30:24.680Z,25.64
2019-04-22T11:32:54.238Z,25.58
2019-04-22T11:35:23.894Z,25.55
2019-04-22T11:37:53.198Z,25.57
2019-04-22T11:40:28.793Z,25.55
2019-04-22T11:42:54.401Z,25.49
2019-04-22T11:45:24.139Z,25.47
2019-04-22T11:47:53.516Z,25.47
2019-04-22T11:50:24.205Z,25.46
2019-04-22T11:52:55.013Z,25.47
2019-04-22T11:55:24.774Z,25.44
2019-04-22T11:57:54.271Z,25.44
2019-04-22T12:00:27.039Z,25.47
2019-04-22T12:02:56.770Z,25.46
2019-04-22T12:05:26.236Z,25.41
2019-04-22T12:07:57.216Z,25.39
2019-04-22T12:10:34.656Z,25.44
2019-04-22T12:12:57.870Z,25.40
2019-04-22T12:15:28.808Z,25.36
2019-04-22T12:17:59.322Z,25.33
2019-04-22T12:20:29.408Z,25.27
2019-04-22T12:22:59.048Z,25.25
2019-04-22T12:25:41.939Z,25.27
2019-04-22T12:28:01.121Z,25.32
2019-04-22T12:30:30.665Z,25.38
2019-04-22T12:33:00.196Z,25.36
2019-04-22T12:35:30.382Z,25.35
2019-04-22T12:38:06.123Z,25.35
2019-04-22T12:40:40.882Z,25.37
2019-04-22T12:43:04.733Z,25.38
2019-04-22T12:45:34.196Z,25.38
2019-04-22T12:48:04.274Z,25.38
2019-04-22T12:50:38.443Z,25.41
2019-04-22T12:53:10.917Z,25.42
2019-04-22T12:55:37.649Z,25.43
2019-04-22T12:58:07.620Z,25.40
2019-04-22T13:00:38.349Z,25.40
2019-04-22T13:03:07.686Z,25.42
2019-04-22T13:05:37.564Z,25.47
2019-04-22T13:08:07.896Z,25.45
2019-04-22T13:10:45.665Z,25.42
2019-04-22T13:13:09.203Z,25.44
2019-04-22T13:15:39.195Z,25.45
2019-04-22T13:18:17.020Z,25.46
2019-04-22T13:20:39.747Z,25.45
2019-04-22T13:23:09.486Z,25.43
2019-04-22T13:25:39.072Z,25.42
2019-04-22T13:28:09.366Z,25.44
2019-04-22T13:30:38.821Z,25.41
2019-04-22T13:33:08.168Z,25.40
2019-04-22T13:35:39.439Z,25.42
2019-04-22T13:38:09.125Z,25.44
2019-04-22T13:40:40.493Z,25.46
2019-04-22T13:43:11.019Z,25.47
2019-04-22T13:45:40.852Z,25.45
2019-04-22T13:48:29.739Z,25.42
2019-04-22T13:51:13.224Z,25.39
2019-04-22T13:56:03.799Z,25.36
2019-04-22T13:58:29.070Z,25.36
2019-04-22T14:00:46.810Z,25.36
2019-04-22T14:03:35.780Z,25.37
2019-04-22T14:06:06.912Z,25.42
2019-04-22T14:08:37.585Z,25.47
2019-04-22T14:11:16.813Z,25.45
2019-04-22T14:13:39.403Z,25.43
2019-04-22T14:16:09.192Z,25.41
2019-04-22T14:18:39.016Z,25.40
2019-04-22T14:21:09.097Z,25.38
2019-04-22T14:23:38.614Z,25.37
2019-04-22T14:26:09.193Z,25.40
2019-04-22T14:28:39.510Z,25.43
2019-04-22T14:31:09.018Z,25.41
2019-04-22T14:33:41.620Z,25.40
2019-04-22T14:36:11.673Z,25.39
2019-04-22T14:38:41.835Z,25.40
2019-04-22T14:41:30.513Z,25.38
2019-04-22T14:44:49.645Z,25.40
2019-04-22T14:46:45.533Z,25.40
2019-04-22T14:49:02.814Z,25.40
2019-04-22T14:51:31.878Z,25.42
2019-04-22T14:54:05.381Z,25.42
2019-04-22T14:56:18.152Z,25.43
2019-04-22T14:58:48.955Z,25.45
2019-04-22T15:01:19.082Z,25.45
2019-04-22T15:03:48.452Z,25.44
2019-04-22T15:06:18.160Z,25.42
2019-04-22T15:08:48.908Z,25.41
2019-04-22T15:11:19.285Z,25.38
2019-04-22T15:13:49.576Z,25.39
2019-04-22T15:16:36.514Z,25.37
2019-04-22T15:19:11.627Z,25.36
2019-04-22T15:21:41.070Z,25.36
2019-04-22T15:24:27.202Z,25.38
2019-04-22T15:26:58.604Z,25.38
2019-04-22T15:29:29.677Z,25.38
2019-04-22T15:31:59.946Z,25.37
2019-04-22T15:34:30.649Z,25.36
2019-04-22T15:37:00.228Z,25.34
2019-04-22T15:39:31.456Z,25.32
2019-04-22T15:42:11.510Z,25.31
2019-04-22T15:44:31.882Z,25.31
2019-04-22T15:47:02.680Z,25.32
2019-04-22T15:49:34.038Z,25.33
2019-04-22T15:52:04.639Z,25.36
2019-04-22T15:54:34.549Z,25.36
2019-04-22T15:57:04.738Z,25.34
2019-04-22T15:59:49.056Z,25.29
2019-04-22T16:02:08.100Z,25.26
2019-04-22T16:04:38.718Z,25.24
2019-04-22T16:07:08.651Z,25.22
2019-04-22T16:09:39.457Z,25.21
2019-04-22T16:12:16.341Z,25.21
2019-04-22T16:14:46.918Z,25.20
2019-04-22T16:17:10.967Z,25.19
2019-04-22T16:19:41.179Z,25.16
2019-04-22T16:22:16.899Z,25.14
2019-04-22T16:24:56.252Z,25.12
2019-04-22T16:27:27.405Z,25.09
2019-04-22T16:29:57.178Z,25.07
2019-04-22T16:32:27.809Z,25.03
2019-04-22T16:34:58.879Z,25.01
2019-04-22T16:37:28.579Z,24.99
2019-04-22T16:39:58.919Z,24.97
2019-04-22T16:42:38.076Z,24.93
2019-04-22T16:44:59.712Z,24.92
2019-04-22T16:47:29.020Z,24.91
2019-04-22T16:49:59.658Z,24.89
2019-04-22T16:52:30.268Z,24.87
2019-04-22T16:55:00.992Z,24.84
2019-04-22T16:57:31.435Z,24.83
2019-04-22T17:00:00.776Z,24.80
2019-04-22T17:02:49.830Z,24.77
2019-04-22T17:05:27.320Z,24.73
2019-04-22T17:07:56.654Z,24.71
2019-04-22T17:10:26.231Z,24.68
2019-04-22T17:13:02.379Z,24.63
2019-04-22T17:15:27.039Z,24.60
2019-04-22T17:17:57.135Z,24.56
2019-04-22T17:20:27.123Z,24.51
2019-04-22T17:22:57.778Z,24.48
2019-04-22T17:25:28.227Z,24.43
2019-04-22T17:27:57.610Z,24.39
2019-04-22T17:30:29.154Z,24.35
2019-04-22T17:32:58.848Z,24.31
2019-04-22T17:35:28.397Z,24.26
2019-04-22T17:38:08.770Z,24.23
2019-04-22T17:40:45.716Z,24.20
2019-04-22T17:43:29.912Z,24.17
2019-04-22T17:45:56.040Z,24.13
2019-04-22T17:48:47.037Z,24.08
2019-04-22T17:51:29.968Z,24.02
2019-04-22T17:53:54.981Z,23.97
2019-04-22T17:56:20.577Z,23.91
2019-04-22T17:58:55.449Z,23.86
2019-04-22T18:01:40.214Z,23.79
2019-04-22T18:03:42.349Z,23.73
2019-04-22T18:06:25.974Z,23.66
2019-04-22T18:08:56.420Z,23.59
2019-04-22T18:11:33.394Z,23.52
2019-04-22T18:14:16.895Z,23.44
2019-04-22T18:16:37.260Z,23.38
2019-04-22T18:19:04.509Z,23.29
2019-04-22T18:21:30.320Z,23.23
2019-04-22T18:24:00.087Z,23.15
2019-04-22T18:26:38.428Z,23.08
2019-04-22T18:29:11.240Z,23.00
2019-04-22T18:31:31.638Z,22.95
2019-04-22T18:34:08.346Z,22.87
2019-04-22T18:36:37.632Z,22.81
2019-04-22T18:39:21.221Z,22.74
2019-04-22T18:41:44.012Z,22.65
2019-04-22T18:44:19.964Z,22.57
2019-04-22T18:46:50.931Z,22.48
2019-04-22T18:49:16.535Z,22.39
2019-04-22T18:52:08.569Z,22.29
2019-04-22T18:54:51.912Z,22.17
2019-04-22T18:57:15.189Z,22.01
2019-04-22T18:59:36.151Z,21.87
2019-04-22T19:02:07.776Z,21.74
2019-04-22T19:04:50.475Z,21.61
2019-04-22T19:07:35.116Z,21.49
2019-04-22T19:10:06.326Z,21.38
2019-04-22T19:12:33.752Z,21.27
2019-04-22T19:15:03.492Z,21.16
2019-04-22T19:17:43.907Z,21.07
2019-04-22T19:20:08.279Z,20.99
2019-04-22T19:22:36.499Z,20.90
2019-04-22T19:25:02.713Z,20.79
2019-04-22T19:27:42.254Z,20.71
2019-04-22T19:30:14.102Z,20.62
2019-04-22T19:32:41.933Z,20.52
2019-04-22T19:35:07.170Z,20.45
2019-04-22T19:37:36.690Z,20.37
2019-04-22T19:40:34.200Z,20.30
2019-04-22T19:45:13.316Z,20.13
2019-04-22T19:47:50.441Z,20.05
2019-04-22T19:50:16.120Z,19.96
2019-04-22T19:52:44.678Z,19.86
2019-04-22T19:55:19.530Z,19.76
2019-04-22T19:57:52.495Z,19.66
2019-04-22T20:00:18.445Z,19.58
2019-04-22T20:02:51.430Z,19.48
2019-04-22T20:05:33.658Z,19.40
2019-04-22T20:07:57.725Z,19.32
2019-04-22T20:10:29.621Z,19.24
2019-04-22T20:13:07.623Z,19.16
2019-04-22T20:15:29.246Z,19.08
2019-04-22T20:18:22.594Z,19.01
2019-04-22T20:20:42.192Z,18.93
2019-04-22T20:23:06.689Z,18.87
2019-04-22T20:25:34.795Z,18.82
2019-04-22T20:28:12.786Z,18.77
2019-04-22T20:30:39.841Z,18.73
2019-04-22T20:33:08.482Z,18.70
2019-04-22T20:35:43.957Z,18.68
2019-04-22T20:38:13.550Z,18.68
2019-04-22T20:40:42.524Z,18.68
2019-04-22T20:43:23.500Z,18.66
2019-04-22T20:45:49.494Z,18.63
2019-04-22T20:48:09.301Z,18.58
2019-04-22T20:50:52.925Z,18.59
2019-04-22T20:53:25.824Z,18.61
2019-04-22T20:55:52.453Z,18.64
2019-04-22T20:58:28.333Z,18.69
2019-04-22T21:00:46.340Z,18.69
2019-04-22T21:03:18.354Z,18.67
2019-04-22T21:05:49.244Z,18.65
2019-04-22T21:08:33.414Z,18.59
2019-04-22T21:10:55.361Z,18.55
2019-04-22T21:13:24.457Z,18.51
2019-04-22T21:16:04.340Z,18.47
2019-04-22T21:18:30.684Z,18.43
2019-04-22T21:21:07.193Z,18.37
2019-04-22T21:23:26.482Z,18.34
2019-04-22T21:26:11.218Z,18.31
2019-04-22T21:28:41.843Z,18.25
2019-04-22T21:31:14.847Z,18.21
2019-04-22T21:33:44.673Z,18.14
2019-04-22T21:36:22.156Z,18.11
2019-04-22T21:38:43.544Z,18.05
2019-04-22T21:41:09.966Z,18.00
2019-04-22T21:43:50.283Z,17.97
2019-04-22T21:46:19.220Z,17.93
2019-04-22T21:48:46.343Z,17.89
2019-04-22T21:51:25.697Z,17.85
2019-04-22T21:54:00.389Z,17.82
2019-04-22T21:56:35.064Z,17.78
2019-04-22T21:58:57.096Z,17.74
2019-04-22T22:01:49.658Z,17.69
2019-04-22T22:04:15.265Z,17.64
2019-04-22T22:06:35.944Z,17.58
2019-04-22T22:09:15.588Z,17.54
2019-04-22T22:11:41.510Z,17.50
2019-04-22T22:14:11.594Z,17.45
2019-04-22T22:16:38.919Z,17.39
2019-04-22T22:19:14.477Z,17.35
2019-04-22T22:21:51.155Z,17.29
2019-04-22T22:24:22.874Z,17.23
2019-04-22T22:26:50.392Z,17.17
2019-04-22T22:29:29.439Z,17.11
2019-04-22T22:31:55.529Z,17.06
2019-04-22T22:34:24.527Z,17.00
2019-04-22T22:36:46.517Z,16.93
2019-04-22T22:39:19.439Z,16.86
2019-04-22T22:41:39.558Z,16.80
2019-04-22T22:44:18.718Z,16.73
2019-04-22T22:46:55.851Z,16.66
2019-04-22T22:49:32.959Z,16.57
2019-04-22T22:54:34.131Z,16.41
2019-04-22T22:57:15.677Z,16.34
2019-04-22T22:59:38.369Z,16.27
2019-04-22T23:02:08.144Z,16.19
2019-04-22T23:04:39.830Z,16.13
2019-04-22T23:07:17.261Z,16.05
2019-04-22T23:09:44.622Z,16.00
2019-04-22T23:12:27.020Z,15.96
2019-04-22T23:14:44.088Z,15.93
2019-04-22T23:17:03.182Z,15.88
2019-04-22T23:19:26.081Z,15.84
2019-04-22T23:22:01.145Z,15.79
2019-04-22T23:25:01.873Z,15.76
2019-04-22T23:27:49.153Z,15.70
2019-04-22T23:30:17.054Z,15.62
2019-04-22T23:32:55.821Z,15.56
2019-04-22T23:35:35.384Z,15.51
2019-04-22T23:38:07.832Z,15.45
2019-04-22T23:40:38.626Z,15.39
2019-04-22T23:43:15.833Z,15.34
2019-04-22T23:45:44.882Z,15.30
2019-04-22T23:48:10.093Z,15.25
2019-04-22T23:50:45.976Z,15.21
2019-04-22T23:53:58.069Z,15.15
2019-04-22T23:56:04.763Z,15.10
